New Orleans, Louisiana
Traffic Map
Current Weather Conditions
New Orleans, Louisiana
Scattered Clouds
Scattered Clouds
29°
Feels Like: 29°
Wind Chill: 29° Ceiling: Unl
Heat Index: 29° Visibility: 10mi
Dew Point: 15° Wind: 5mph
Humidity: 42% Direction: 360° (N)
Pressure: 30.07in Gusts: 0mph
Raw Report DataKVSH 301655Z AUTO 36004KT 10SM SCT050 29/15 A3007 RMK AO1
Traffic Incident Summary
Active as of:
Severity:
Category:
InformationThere was an issue retrieving the traffic information for this location. Please try a different location or try again shortly.
Advertisements
Track Severe Weather on mobile